createdAt,value
2018-06-02T00:00:11.348Z,4.80
2018-06-02T00:01:32.090Z,4.40
2018-06-02T00:02:25.223Z,5.00
2018-06-02T00:03:32.021Z,4.80
2018-06-02T00:04:38.852Z,4.60
2018-06-02T00:05:45.647Z,4.50
2018-06-02T00:06:52.486Z,4.40
2018-06-02T00:07:59.365Z,4.60
2018-06-02T00:09:06.176Z,4.60
2018-06-02T00:10:13.000Z,4.70
2018-06-02T00:11:19.745Z,5.40
2018-06-02T00:12:26.570Z,5.00
2018-06-02T00:13:33.369Z,5.00
2018-06-02T00:14:40.356Z,5.10
2018-06-02T00:15:47.203Z,4.20
2018-06-02T00:16:54.101Z,5.30
2018-06-02T00:18:00.929Z,4.70
2018-06-02T00:19:07.835Z,5.20
2018-06-02T00:20:14.686Z,4.90
2018-06-02T00:21:21.596Z,4.30
2018-06-02T00:22:28.452Z,4.90
2018-06-02T00:23:35.356Z,5.50
2018-06-02T00:24:42.251Z,4.70
2018-06-02T00:25:49.096Z,5.00
2018-06-02T00:26:55.927Z,4.60
2018-06-02T00:28:02.873Z,5.30
2018-06-02T00:29:09.723Z,4.70
2018-06-02T00:30:16.624Z,4.40
2018-06-02T00:31:23.486Z,4.60
2018-06-02T00:32:30.387Z,5.10
2018-06-02T00:33:37.177Z,4.90
2018-06-02T00:34:43.974Z,5.00
2018-06-02T00:35:50.811Z,5.30
2018-06-02T00:36:57.655Z,5.00
2018-06-02T00:38:04.828Z,4.60
2018-06-02T00:39:11.646Z,4.70
2018-06-02T00:40:18.463Z,4.70
2018-06-02T00:41:25.300Z,4.60
2018-06-02T00:42:32.177Z,5.20
2018-06-02T00:43:38.987Z,4.50
2018-06-02T00:44:45.793Z,5.10
2018-06-02T00:45:52.623Z,5.80
2018-06-02T00:46:59.455Z,5.00
2018-06-02T00:48:06.267Z,5.10
2018-06-02T00:49:13.112Z,6.10
2018-06-02T00:50:19.924Z,5.40
2018-06-02T00:51:26.708Z,5.70
2018-06-02T00:52:33.583Z,5.40
2018-06-02T00:53:40.425Z,5.60
2018-06-02T00:54:47.313Z,5.30
2018-06-02T00:55:54.329Z,5.40
2018-06-02T00:57:01.206Z,5.20
2018-06-02T00:58:08.057Z,5.40
2018-06-02T00:59:14.956Z,5.60
2018-06-02T01:00:21.799Z,5.80
2018-06-02T01:01:28.721Z,5.50
2018-06-02T01:02:35.572Z,5.50
2018-06-02T01:03:42.459Z,4.90
2018-06-02T01:04:49.282Z,5.20
2018-06-02T01:05:56.098Z,5.40
2018-06-02T01:07:02.929Z,5.70
2018-06-02T01:08:09.735Z,5.70
2018-06-02T01:09:16.603Z,5.10
2018-06-02T01:10:23.495Z,4.90
2018-06-02T01:11:30.354Z,5.20
2018-06-02T01:12:37.207Z,5.20
2018-06-02T01:13:44.280Z,5.90
2018-06-02T01:14:51.099Z,6.00
2018-06-02T01:15:58.155Z,6.00
2018-06-02T01:17:05.032Z,5.60
2018-06-02T01:18:11.949Z,5.70
2018-06-02T01:19:18.768Z,5.50
2018-06-02T01:20:25.613Z,5.90
2018-06-02T01:21:32.519Z,6.10
2018-06-02T01:22:39.666Z,6.00
2018-06-02T01:23:46.516Z,6.60
2018-06-02T01:24:53.315Z,6.00
2018-06-02T01:26:00.112Z,6.10
2018-06-02T01:27:06.970Z,5.90
2018-06-02T01:28:14.128Z,6.70
2018-06-02T01:29:20.926Z,6.40
2018-06-02T01:30:27.792Z,6.80
2018-06-02T01:31:34.654Z,6.70
2018-06-02T01:32:41.462Z,7.00
2018-06-02T01:33:48.278Z,6.80
2018-06-02T01:34:55.083Z,6.90
2018-06-02T01:36:01.859Z,7.10
2018-06-02T01:37:08.800Z,6.70
2018-06-02T01:38:15.571Z,6.40
2018-06-02T01:39:22.334Z,6.90
2018-06-02T01:40:29.177Z,6.50
2018-06-02T01:41:35.970Z,7.00
2018-06-02T01:42:42.766Z,6.80
2018-06-02T01:43:49.547Z,6.80
2018-06-02T01:44:56.339Z,7.60
2018-06-02T01:46:03.115Z,7.00
2018-06-02T01:47:09.935Z,7.50
2018-06-02T01:48:16.774Z,7.50
2018-06-02T01:49:23.643Z,7.00
2018-06-02T01:50:30.459Z,7.30
2018-06-02T01:51:37.240Z,8.20
2018-06-02T01:52:44.076Z,7.70
2018-06-02T01:53:50.841Z,7.40
2018-06-02T01:54:57.630Z,7.70
2018-06-02T01:56:04.485Z,7.60
2018-06-02T01:57:11.402Z,7.90
2018-06-02T01:58:18.218Z,8.50
2018-06-02T01:59:25.068Z,8.00
2018-06-02T02:00:31.895Z,8.30
2018-06-02T02:01:38.734Z,8.30
2018-06-02T02:02:45.664Z,8.00
2018-06-02T02:03:52.534Z,8.70
2018-06-02T02:04:59.386Z,7.60
2018-06-02T02:06:06.220Z,8.10
2018-06-02T02:07:13.406Z,8.40
2018-06-02T02:08:20.238Z,7.90
2018-06-02T02:09:27.106Z,7.80
2018-06-02T02:10:33.992Z,8.50
2018-06-02T02:11:40.814Z,8.60
2018-06-02T02:12:47.612Z,7.80
2018-06-02T02:13:54.436Z,8.40
2018-06-02T02:15:01.260Z,7.70
2018-06-02T02:16:08.163Z,8.80
2018-06-02T02:17:14.999Z,8.50
2018-06-02T02:18:21.895Z,8.30
2018-06-02T02:19:28.714Z,8.00
2018-06-02T02:20:35.525Z,8.60
2018-06-02T02:21:42.356Z,8.20
2018-06-02T02:22:49.158Z,8.10
2018-06-02T02:24:01.795Z,8.20
2018-06-02T02:25:03.144Z,8.20
2018-06-02T02:26:09.991Z,8.20
2018-06-02T02:27:16.890Z,8.70
2018-06-02T02:28:23.721Z,8.10
2018-06-02T02:29:30.654Z,8.90
2018-06-02T02:30:37.526Z,9.00
2018-06-02T02:31:44.393Z,9.10
2018-06-02T02:32:51.239Z,9.20
2018-06-02T02:33:58.131Z,8.50
2018-06-02T02:35:04.922Z,9.00
2018-06-02T02:36:11.716Z,9.10
2018-06-02T02:37:18.529Z,9.70
2018-06-02T02:38:25.360Z,9.00
2018-06-02T02:39:32.234Z,9.10
2018-06-02T02:40:39.022Z,8.90
2018-06-02T02:41:45.851Z,8.70
2018-06-02T02:42:53.000Z,8.90
2018-06-02T02:43:59.367Z,9.40
2018-06-02T02:45:06.153Z,10.00
2018-06-02T02:46:13.018Z,9.00
2018-06-02T02:47:19.773Z,9.70
2018-06-02T02:48:26.771Z,8.60
2018-06-02T02:49:33.544Z,9.70
2018-06-02T02:50:40.283Z,9.70
2018-06-02T02:51:47.187Z,9.90
2018-06-02T02:52:53.987Z,9.80
2018-06-02T02:54:00.807Z,9.80
2018-06-02T02:55:07.589Z,10.10
2018-06-02T02:56:14.368Z,9.90
2018-06-02T02:57:21.139Z,10.10
2018-06-02T02:58:27.969Z,9.80
2018-06-02T02:59:34.775Z,10.10
2018-06-02T03:00:41.658Z,9.90
2018-06-02T03:01:48.521Z,9.90
2018-06-02T03:02:55.407Z,9.90
2018-06-02T03:04:02.233Z,10.20
2018-06-02T03:05:09.012Z,10.30
2018-06-02T03:06:15.822Z,10.40
2018-06-02T03:07:22.677Z,9.70
2018-06-02T03:08:29.548Z,9.90
2018-06-02T03:09:36.388Z,10.50
2018-06-02T03:10:43.311Z,10.10
2018-06-02T03:11:50.203Z,10.30
2018-06-02T03:12:57.056Z,9.60
2018-06-02T03:14:03.884Z,9.50
2018-06-02T03:15:10.765Z,9.60
2018-06-02T03:16:17.596Z,10.50
2018-06-02T03:17:24.513Z,10.50
2018-06-02T03:18:31.390Z,9.90
2018-06-02T03:19:38.253Z,10.30
2018-06-02T03:20:45.109Z,11.00
2018-06-02T03:21:51.975Z,11.10
2018-06-02T03:22:58.810Z,10.40
2018-06-02T03:24:05.749Z,10.00
2018-06-02T03:25:12.598Z,10.60
2018-06-02T03:26:19.481Z,11.10
2018-06-02T03:27:26.300Z,10.80
2018-06-02T03:28:33.220Z,9.70
2018-06-02T03:29:40.075Z,10.40
2018-06-02T03:30:46.951Z,11.80
2018-06-02T03:31:53.744Z,9.50
2018-06-02T03:33:00.532Z,10.60
2018-06-02T03:34:07.353Z,10.00
2018-06-02T03:35:14.143Z,10.40
2018-06-02T03:36:21.049Z,10.20
2018-06-02T03:37:27.853Z,11.00
2018-06-02T03:38:35.166Z,10.70
2018-06-02T03:39:41.932Z,10.40
2018-06-02T03:40:48.815Z,10.90
2018-06-02T03:41:55.655Z,10.50
2018-06-02T03:43:02.504Z,11.50
2018-06-02T03:44:09.443Z,10.80
2018-06-02T03:45:16.248Z,11.60
2018-06-02T03:46:23.184Z,11.30
2018-06-02T03:47:30.004Z,10.80
2018-06-02T03:48:36.929Z,10.90
2018-06-02T03:49:43.849Z,11.80
2018-06-02T03:50:50.689Z,10.00
2018-06-02T03:51:57.574Z,11.30
2018-06-02T03:53:04.440Z,11.40
2018-06-02T03:54:11.412Z,10.90
2018-06-02T03:55:18.237Z,11.40
2018-06-02T03:56:25.064Z,11.30
2018-06-02T03:57:31.883Z,11.40
2018-06-02T03:58:38.699Z,11.20
2018-06-02T03:59:45.552Z,10.70
2018-06-02T04:00:52.396Z,10.40
2018-06-02T04:01:59.291Z,11.10
2018-06-02T04:03:06.059Z,10.40
2018-06-02T04:04:12.868Z,11.30
2018-06-02T04:05:19.671Z,11.40
2018-06-02T04:06:26.475Z,12.00
2018-06-02T04:07:33.272Z,11.30
2018-06-02T04:08:40.080Z,11.20
2018-06-02T04:09:46.844Z,12.30
2018-06-02T04:10:53.664Z,11.70
2018-06-02T04:12:00.558Z,11.10
2018-06-02T04:13:07.319Z,11.50
2018-06-02T04:14:14.181Z,10.90
2018-06-02T04:15:20.996Z,10.60
2018-06-02T04:16:27.819Z,11.30
2018-06-02T04:17:34.614Z,10.70
2018-06-02T04:18:41.458Z,10.60
2018-06-02T04:19:48.271Z,10.20
2018-06-02T04:20:55.074Z,10.10
2018-06-02T04:22:01.859Z,10.50
2018-06-02T04:23:08.672Z,10.60
2018-06-02T04:24:15.451Z,10.90
2018-06-02T04:25:22.211Z,10.80
2018-06-02T04:26:28.971Z,11.30
2018-06-02T04:27:35.715Z,10.40
2018-06-02T04:28:42.983Z,11.80
2018-06-02T04:29:49.539Z,11.30
2018-06-02T04:30:56.350Z,11.00
2018-06-02T04:32:03.174Z,11.80
2018-06-02T04:33:09.978Z,10.60
2018-06-02T04:34:16.930Z,10.90
2018-06-02T04:35:23.771Z,10.40
2018-06-02T04:36:30.665Z,10.90
2018-06-02T04:37:37.427Z,10.20
2018-06-02T04:38:44.202Z,10.40
2018-06-02T04:39:51.058Z,11.10
2018-06-02T04:40:57.847Z,10.70
2018-06-02T04:42:04.611Z,10.00
2018-06-02T04:43:11.452Z,9.60
2018-06-02T04:44:18.296Z,11.20
2018-06-02T04:45:25.094Z,10.10
2018-06-02T04:46:31.844Z,10.20
2018-06-02T04:47:38.707Z,10.80
2018-06-02T04:48:45.572Z,10.60
2018-06-02T04:49:52.363Z,10.10
2018-06-02T04:50:59.139Z,10.30
2018-06-02T04:52:06.566Z,10.80
2018-06-02T04:53:12.716Z,10.30
2018-06-02T04:54:19.592Z,9.80
2018-06-02T04:55:26.464Z,10.50
2018-06-02T04:56:33.260Z,9.80
2018-06-02T04:57:40.171Z,10.20
2018-06-02T04:58:47.047Z,11.00
2018-06-02T04:59:53.882Z,11.30
2018-06-02T05:01:00.696Z,9.50
2018-06-02T05:02:07.539Z,9.80
2018-06-02T05:03:14.321Z,9.10
2018-06-02T05:04:21.121Z,10.20
2018-06-02T05:05:28.039Z,9.60
2018-06-02T05:06:35.043Z,9.90
2018-06-02T05:07:41.876Z,10.60
2018-06-02T05:08:48.782Z,10.20
2018-06-02T05:09:55.659Z,9.80
2018-06-02T05:11:02.530Z,10.00
2018-06-02T05:12:09.523Z,8.60
2018-06-02T05:13:16.341Z,9.70
2018-06-02T05:14:23.395Z,9.30
2018-06-02T05:15:30.155Z,9.10
2018-06-02T05:16:37.147Z,9.00
2018-06-02T05:17:43.959Z,10.20
2018-06-02T05:18:50.882Z,9.70
2018-06-02T05:19:57.963Z,9.50
2018-06-02T05:21:04.843Z,9.30
2018-06-02T05:22:11.663Z,9.80
2018-06-02T05:23:18.497Z,9.40
2018-06-02T05:24:25.318Z,9.20
2018-06-02T05:25:32.115Z,9.50
2018-06-02T05:26:38.947Z,9.30
2018-06-02T05:27:45.791Z,9.00
2018-06-02T05:28:52.623Z,10.40
2018-06-02T05:29:59.555Z,9.90
2018-06-02T05:31:06.489Z,8.90
2018-06-02T05:32:13.492Z,9.30
2018-06-02T05:33:20.228Z,9.70
2018-06-02T05:34:27.094Z,9.50
2018-06-02T05:35:33.962Z,9.60
2018-06-02T05:36:40.778Z,9.30
2018-06-02T05:37:48.012Z,9.30
2018-06-02T05:38:54.495Z,10.00
2018-06-02T05:40:01.489Z,8.60
2018-06-02T05:41:08.550Z,8.70
2018-06-02T05:42:15.143Z,8.60
2018-06-02T05:43:22.050Z,9.10
2018-06-02T05:44:28.872Z,8.90
2018-06-02T05:45:35.807Z,9.10
2018-06-02T05:46:42.570Z,9.70
2018-06-02T05:47:49.390Z,9.60
2018-06-02T05:48:56.128Z,10.30
2018-06-02T05:50:02.970Z,8.70
2018-06-02T05:51:09.718Z,9.00
2018-06-02T05:52:16.462Z,9.50
2018-06-02T05:53:23.212Z,9.20
2018-06-02T05:54:29.990Z,9.60
2018-06-02T05:55:36.862Z,9.90
2018-06-02T05:56:43.854Z,9.60
2018-06-02T05:57:50.627Z,9.70
2018-06-02T05:58:57.381Z,10.10
2018-06-02T06:00:04.139Z,10.10
2018-06-02T06:01:11.168Z,10.20
2018-06-02T06:02:17.970Z,9.50
2018-06-02T06:03:25.862Z,10.20
2018-06-02T06:04:31.619Z,10.30
2018-06-02T06:05:38.444Z,9.90
2018-06-02T06:06:45.258Z,9.90
2018-06-02T06:07:52.094Z,10.40
2018-06-02T06:08:58.872Z,10.30
2018-06-02T06:10:05.770Z,14.60
2018-06-02T06:11:12.857Z,14.90
2018-06-02T06:12:19.780Z,14.30
2018-06-02T06:13:26.612Z,13.80
2018-06-02T06:14:33.376Z,14.30
2018-06-02T06:15:40.283Z,15.00
2018-06-02T06:16:47.194Z,13.20
2018-06-02T06:17:54.096Z,13.40
2018-06-02T06:19:00.903Z,12.70
2018-06-02T06:20:07.794Z,10.70
2018-06-02T06:21:14.643Z,10.30
2018-06-02T06:22:21.499Z,10.40
2018-06-02T06:23:28.982Z,10.60
2018-06-02T06:24:35.020Z,10.70
2018-06-02T06:25:41.796Z,9.40
2018-06-02T06:26:48.682Z,10.20
2018-06-02T06:27:55.512Z,9.90
2018-06-02T06:29:02.358Z,9.10
2018-06-02T06:30:09.096Z,9.20
2018-06-02T06:31:15.860Z,9.40
2018-06-02T06:32:22.579Z,9.10
2018-06-02T06:33:29.330Z,8.70
2018-06-02T06:34:36.101Z,10.00
2018-06-02T06:35:42.875Z,9.70
2018-06-02T06:36:49.685Z,9.00
2018-06-02T06:37:56.431Z,8.80
2018-06-02T06:39:03.196Z,9.40
2018-06-02T06:40:10.052Z,9.60
2018-06-02T06:41:16.815Z,9.50
2018-06-02T06:42:23.575Z,10.70
2018-06-02T06:43:30.427Z,9.30
2018-06-02T06:44:37.317Z,9.00
2018-06-02T06:45:44.160Z,9.30
2018-06-02T06:46:51.012Z,9.60
2018-06-02T06:47:57.875Z,9.40
2018-06-02T06:49:04.685Z,9.20
2018-06-02T06:50:11.517Z,8.80
2018-06-02T06:51:18.288Z,9.40
2018-06-02T06:52:25.072Z,9.60
2018-06-02T06:53:31.832Z,9.00
2018-06-02T06:54:38.667Z,9.20
2018-06-02T06:55:45.754Z,9.80
2018-06-02T06:56:52.594Z,9.30
2018-06-02T06:57:59.520Z,9.60
2018-06-02T06:59:06.301Z,9.30
2018-06-02T07:00:13.078Z,9.10
2018-06-02T07:01:19.886Z,9.90
2018-06-02T07:02:26.611Z,9.50
2018-06-02T07:03:33.389Z,9.40
2018-06-02T07:04:40.231Z,9.10
2018-06-02T07:05:47.075Z,9.60
2018-06-02T07:06:53.831Z,9.70
2018-06-02T07:08:00.621Z,10.00
2018-06-02T07:09:07.471Z,9.10
2018-06-02T07:10:14.367Z,9.40
2018-06-02T07:11:21.332Z,9.30
2018-06-02T07:12:28.129Z,9.60
2018-06-02T07:13:34.944Z,8.40
2018-06-02T07:14:41.796Z,9.60
2018-06-02T07:15:48.530Z,8.60
2018-06-02T07:16:55.292Z,8.90
2018-06-02T07:18:02.393Z,8.80
2018-06-02T07:19:09.183Z,9.00
2018-06-02T07:20:15.964Z,9.00
2018-06-02T07:21:22.780Z,9.00
2018-06-02T07:22:29.707Z,8.40
2018-06-02T07:23:36.512Z,9.00
2018-06-02T07:24:43.278Z,8.60
2018-06-02T07:25:50.055Z,9.00
2018-06-02T07:26:56.847Z,8.70
2018-06-02T07:28:03.637Z,8.70
2018-06-02T07:29:10.481Z,8.60
2018-06-02T07:30:17.541Z,8.50
2018-06-02T07:31:24.295Z,8.60
2018-06-02T07:32:31.090Z,8.50
2018-06-02T07:33:38.074Z,8.30
2018-06-02T07:34:44.882Z,8.60
2018-06-02T07:35:51.703Z,7.90
2018-06-02T07:36:58.528Z,8.10
2018-06-02T07:38:05.381Z,8.30
2018-06-02T07:39:12.123Z,8.40
2018-06-02T07:40:19.019Z,8.70
2018-06-02T07:41:25.875Z,9.40
2018-06-02T07:42:32.728Z,9.00
2018-06-02T07:43:39.543Z,8.40
2018-06-02T07:45:53.455Z,7.70
2018-06-02T07:47:00.115Z,7.30
2018-06-02T07:48:06.996Z,7.10
2018-06-02T07:49:13.830Z,7.20
2018-06-02T07:50:20.766Z,7.90
2018-06-02T07:51:27.659Z,7.70
2018-06-02T07:52:34.499Z,7.40
2018-06-02T07:53:41.293Z,7.00
2018-06-02T07:54:48.235Z,7.20
2018-06-02T07:55:55.039Z,6.00
2018-06-02T07:57:01.785Z,6.40
2018-06-02T07:58:08.618Z,6.20
2018-06-02T07:59:15.350Z,7.00
2018-06-02T08:00:22.086Z,6.00
2018-06-02T08:01:28.832Z,6.30
2018-06-02T08:02:35.980Z,6.20
2018-06-02T08:03:42.321Z,6.60
2018-06-02T08:04:54.164Z,5.30
2018-06-02T08:06:00.930Z,6.20
2018-06-02T08:07:02.773Z,5.80
2018-06-02T08:08:09.755Z,7.10
2018-06-02T08:09:16.595Z,6.00
2018-06-02T08:10:24.046Z,6.30
2018-06-02T08:11:30.419Z,7.30
2018-06-02T08:12:37.378Z,6.60
2018-06-02T08:13:44.183Z,6.30
2018-06-02T08:14:50.996Z,6.00
2018-06-02T08:15:57.745Z,6.80
2018-06-02T08:17:04.818Z,5.70
2018-06-02T08:18:11.623Z,5.80
2018-06-02T08:19:18.495Z,5.90
2018-06-02T08:20:25.265Z,5.80
2018-06-02T08:21:32.246Z,5.60
2018-06-02T08:22:39.340Z,6.20
2018-06-02T08:23:46.168Z,6.60
2018-06-02T08:24:53.008Z,6.40
2018-06-02T08:25:59.819Z,6.20
2018-06-02T08:27:06.592Z,6.30
2018-06-02T08:28:13.336Z,6.60
2018-06-02T08:29:20.305Z,6.00
2018-06-02T08:30:27.101Z,6.80
2018-06-02T08:31:33.970Z,6.50
2018-06-02T08:32:40.841Z,6.00
2018-06-02T08:33:47.627Z,6.40
2018-06-02T08:34:54.492Z,6.10
2018-06-02T08:36:01.366Z,6.40
2018-06-02T08:37:08.190Z,6.90
2018-06-02T08:38:14.999Z,6.60
2018-06-02T08:39:21.757Z,6.60
2018-06-02T08:40:28.503Z,6.60
2018-06-02T08:41:35.296Z,5.70
2018-06-02T08:42:42.094Z,6.20
2018-06-02T08:43:48.844Z,6.40
2018-06-02T08:44:55.611Z,6.10
2018-06-02T08:46:02.339Z,6.60
2018-06-02T08:47:09.095Z,6.30
2018-06-02T08:48:15.882Z,6.60
2018-06-02T08:49:22.627Z,6.90
2018-06-02T08:50:29.478Z,6.40
2018-06-02T08:51:36.376Z,6.60
2018-06-02T08:52:43.173Z,6.00
2018-06-02T08:53:50.044Z,6.10
2018-06-02T08:54:56.888Z,6.30
2018-06-02T08:56:03.699Z,6.50
2018-06-02T08:57:10.466Z,6.20
2018-06-02T08:58:17.270Z,6.50
2018-06-02T08:59:26.029Z,6.40
2018-06-02T09:00:30.881Z,6.10
2018-06-02T09:01:37.707Z,6.40
2018-06-02T09:02:44.519Z,6.60
2018-06-02T09:03:51.373Z,6.40
2018-06-02T09:05:01.026Z,5.70
2018-06-02T09:06:05.247Z,5.80
2018-06-02T09:07:12.079Z,5.30
2018-06-02T09:08:18.927Z,5.70
2018-06-02T09:09:25.722Z,6.30
2018-06-02T09:10:32.570Z,6.10
2018-06-02T09:11:39.612Z,5.60
2018-06-02T09:12:46.651Z,4.90
2018-06-02T09:13:53.527Z,5.20
2018-06-02T09:15:00.463Z,4.80
2018-06-02T09:16:07.260Z,4.70
2018-06-02T09:17:14.167Z,4.70
2018-06-02T09:18:20.807Z,4.50
2018-06-02T09:19:27.587Z,4.90
2018-06-02T09:20:34.520Z,4.90
2018-06-02T09:21:41.621Z,4.90
2018-06-02T09:22:47.982Z,5.10
2018-06-02T09:23:54.918Z,5.20
2018-06-02T09:25:01.854Z,5.40
2018-06-02T09:26:08.687Z,5.30
2018-06-02T09:27:15.762Z,5.70
2018-06-02T09:28:22.355Z,5.70
2018-06-02T09:29:29.189Z,6.00
2018-06-02T09:30:36.049Z,5.40
2018-06-02T09:31:42.979Z,5.80
2018-06-02T09:32:49.819Z,5.10
2018-06-02T09:33:56.684Z,5.50
2018-06-02T09:35:03.376Z,5.30
2018-06-02T09:36:10.188Z,4.90
2018-06-02T09:37:17.202Z,4.70
2018-06-02T09:38:24.003Z,4.60
2018-06-02T09:39:30.776Z,4.60
2018-06-02T09:40:37.551Z,4.80
2018-06-02T09:41:47.270Z,7.30
2018-06-02T09:42:51.455Z,5.70
2018-06-02T09:43:58.448Z,6.70
2018-06-02T09:45:05.327Z,5.40
2018-06-02T09:46:12.892Z,4.20
2018-06-02T09:47:19.215Z,4.10
2018-06-02T09:48:26.106Z,4.50
2018-06-02T09:49:33.111Z,7.40
2018-06-02T09:50:40.037Z,9.40
2018-06-02T09:51:46.875Z,13.90
2018-06-02T09:52:55.416Z,9.20
2018-06-02T09:54:00.730Z,10.50
2018-06-02T09:55:07.553Z,8.00
2018-06-02T09:56:16.284Z,4.00
2018-06-02T09:57:22.022Z,3.90
2018-06-02T09:58:28.516Z,4.00
2018-06-02T09:59:35.556Z,3.40
2018-06-02T10:00:42.475Z,4.10
2018-06-02T10:01:49.299Z,3.80
2018-06-02T10:02:57.149Z,4.30
2018-06-02T10:04:03.235Z,3.50
2018-06-02T10:05:10.097Z,4.70
2018-06-02T10:06:16.960Z,4.10
2018-06-02T10:07:23.796Z,3.90
2018-06-02T10:09:56.442Z,4.20
2018-06-02T10:11:03.057Z,4.10
2018-06-02T10:12:11.040Z,3.80
2018-06-02T10:13:16.934Z,4.40
2018-06-02T10:14:23.779Z,5.80
2018-06-02T10:15:30.670Z,5.30
2018-06-02T10:16:37.477Z,5.60
2018-06-02T10:17:44.249Z,5.80
2018-06-02T10:18:51.145Z,6.00
2018-06-02T10:19:58.055Z,6.20
2018-06-02T10:21:06.773Z,6.10
2018-06-02T10:22:11.686Z,6.70
2018-06-02T10:23:25.608Z,6.30
2018-06-02T10:24:25.651Z,4.30
2018-06-02T10:25:34.476Z,4.40
2018-06-02T10:26:39.377Z,4.30
2018-06-02T10:27:47.996Z,4.40
2018-06-02T10:28:53.138Z,4.30
2018-06-02T10:30:00.039Z,3.80
2018-06-02T10:31:07.027Z,3.70
2018-06-02T10:32:14.140Z,4.30
2018-06-02T10:33:21.074Z,4.10
2018-06-02T10:34:29.574Z,3.70
2018-06-02T10:35:35.008Z,3.90
2018-06-02T10:36:41.873Z,4.10
2018-06-02T10:37:48.737Z,4.00
2018-06-02T10:38:55.855Z,4.20
2018-06-02T10:40:02.645Z,4.20
2018-06-02T10:41:09.885Z,4.30
2018-06-02T10:42:16.264Z,3.80
2018-06-02T10:43:26.270Z,3.90
2018-06-02T10:44:36.188Z,3.80
2018-06-02T10:51:35.158Z,4.30
2018-06-02T10:52:41.127Z,4.90
2018-06-02T10:54:59.711Z,3.80
2018-06-02T10:57:10.327Z,3.80
2018-06-02T10:58:16.151Z,3.40
2018-06-02T10:59:38.433Z,3.40
2018-06-02T11:00:30.239Z,3.70
2018-06-02T11:01:38.300Z,3.50
2018-06-02T11:02:49.888Z,3.60
2018-06-02T11:05:01.958Z,3.80
2018-06-02T11:06:04.959Z,3.70
2018-06-02T11:07:11.907Z,3.90
2018-06-02T11:08:20.845Z,3.60
2018-06-02T11:09:25.716Z,4.40
2018-06-02T11:10:33.203Z,3.60
2018-06-02T11:11:39.740Z,3.60
2018-06-02T11:12:47.909Z,3.90
2018-06-02T11:13:53.483Z,3.80
2018-06-02T11:15:02.655Z,3.70
2018-06-02T11:16:08.555Z,3.40
2018-06-02T11:17:13.959Z,3.60
2018-06-02T11:18:20.758Z,3.70
2018-06-02T11:19:27.818Z,4.20
2018-06-02T11:20:34.526Z,3.20
2018-06-02T11:21:42.620Z,3.60
2018-06-02T11:23:55.574Z,3.30
2018-06-02T11:25:03.417Z,3.40
2018-06-02T11:26:09.259Z,3.70
2018-06-02T11:27:15.823Z,3.60
2018-06-02T11:28:22.858Z,3.90
2018-06-02T11:29:29.733Z,3.80
2018-06-02T11:30:36.988Z,4.10
2018-06-02T11:31:45.732Z,3.70
2018-06-02T11:32:51.323Z,4.10
2018-06-02T11:33:57.969Z,4.30
2018-06-02T11:35:12.095Z,4.00
2018-06-02T11:36:13.297Z,3.90
2018-06-02T11:37:18.791Z,4.40
2018-06-02T11:38:25.233Z,3.60
2018-06-02T11:39:32.143Z,3.70
2018-06-02T11:40:38.988Z,3.80
2018-06-02T11:41:47.773Z,3.80
2018-06-02T11:42:53.462Z,3.90
2018-06-02T11:44:00.364Z,4.00
2018-06-02T11:49:11.602Z,4.20
2018-06-02T11:50:16.298Z,3.80
2018-06-02T11:51:29.037Z,3.90
2018-06-02T11:52:30.291Z,3.90
2018-06-02T11:53:37.223Z,4.40
2018-06-02T11:54:44.373Z,3.60
2018-06-02T11:55:51.512Z,4.10
2018-06-02T11:56:58.159Z,3.80
2018-06-02T12:00:10.963Z,3.70
2018-06-02T12:09:26.761Z,3.30
2018-06-02T12:11:39.507Z,3.20
2018-06-02T12:13:53.360Z,3.30
2018-06-02T12:15:00.477Z,3.30
2018-06-02T12:16:09.288Z,3.50
2018-06-02T12:20:36.320Z,3.50
2018-06-02T12:21:43.727Z,3.20
2018-06-02T12:24:00.855Z,3.50
2018-06-02T12:25:02.738Z,3.10
2018-06-02T12:26:10.326Z,3.00
2018-06-02T12:27:16.591Z,3.00
2018-06-02T12:28:23.636Z,3.40
2018-06-02T12:29:30.366Z,3.40
2018-06-02T12:30:37.114Z,3.00
2018-06-02T12:31:46.098Z,3.30
2018-06-02T12:32:50.564Z,3.70
2018-06-02T12:33:57.343Z,2.80
2018-06-02T12:35:04.183Z,3.30
2018-06-02T12:36:11.451Z,3.40
2018-06-02T12:41:15.771Z,3.70
2018-06-02T12:42:22.828Z,3.50
2018-06-02T12:43:30.837Z,3.40
2018-06-02T12:44:36.517Z,3.10
2018-06-02T12:45:45.372Z,3.10
2018-06-02T12:46:50.140Z,2.70
2018-06-02T12:52:48.302Z,3.40
2018-06-02T12:55:02.513Z,3.00
2018-06-02T12:57:16.383Z,3.10
2018-06-02T12:58:39.328Z,3.60
2018-06-02T13:01:02.060Z,3.50
2018-06-02T13:02:07.461Z,3.30
2018-06-02T13:03:14.541Z,3.30
2018-06-02T13:04:21.172Z,4.10
2018-06-02T13:05:28.037Z,3.20
2018-06-02T13:06:34.997Z,3.20
2018-06-02T13:07:42.161Z,3.20
2018-06-02T13:08:49.036Z,3.40
2018-06-02T13:09:58.349Z,3.70
2018-06-02T13:11:02.977Z,3.00
2018-06-02T13:12:09.568Z,3.90
2018-06-02T13:13:16.446Z,3.10
2018-06-02T13:14:23.366Z,3.70
2018-06-02T13:15:30.354Z,3.50
2018-06-02T13:16:37.397Z,3.10
2018-06-02T13:17:44.577Z,3.60
2018-06-02T13:18:51.413Z,3.40
2018-06-02T13:19:58.308Z,3.10
2018-06-02T13:21:05.142Z,3.90
2018-06-02T13:22:11.996Z,3.20
2018-06-02T13:23:18.908Z,3.50
2018-06-02T13:24:25.914Z,3.40
2018-06-02T13:25:32.647Z,3.50
2018-06-02T13:26:39.484Z,3.50
2018-06-02T13:27:47.266Z,3.80
2018-06-02T13:28:53.530Z,3.60
2018-06-02T13:30:00.413Z,3.90
2018-06-02T13:31:07.459Z,3.50
2018-06-02T13:32:14.300Z,3.70
2018-06-02T13:33:21.196Z,7.20
2018-06-02T13:34:28.085Z,3.80
2018-06-02T13:35:35.023Z,4.90
2018-06-02T13:36:41.830Z,5.40
2018-06-02T13:37:48.747Z,3.70
2018-06-02T13:38:55.672Z,3.70
2018-06-02T13:40:02.797Z,3.70
2018-06-02T13:41:09.465Z,3.70
2018-06-02T13:42:16.326Z,3.60
2018-06-02T13:43:23.221Z,3.50
2018-06-02T13:44:30.054Z,3.50
2018-06-02T13:45:38.790Z,3.80
2018-06-02T13:46:45.374Z,3.60
2018-06-02T13:47:50.874Z,3.40
2018-06-02T13:48:57.810Z,3.80
2018-06-02T13:50:04.648Z,3.80
2018-06-02T13:51:11.362Z,3.70
2018-06-02T13:52:18.437Z,3.80
2018-06-02T13:53:25.255Z,3.50
2018-06-02T13:54:32.544Z,4.50
2018-06-02T13:55:39.009Z,3.90
2018-06-02T13:56:45.870Z,4.60
2018-06-02T13:57:52.657Z,4.30
2018-06-02T13:58:59.566Z,4.80
2018-06-02T14:00:06.500Z,4.20
2018-06-02T14:01:13.563Z,3.90
2018-06-02T14:02:20.424Z,3.50
2018-06-02T14:03:27.315Z,3.70
2018-06-02T14:04:34.179Z,3.90
2018-06-02T14:05:41.182Z,4.00
2018-06-02T14:06:47.888Z,3.70
2018-06-02T14:07:54.695Z,3.60
2018-06-02T14:09:04.899Z,3.70
2018-06-02T14:11:19.207Z,3.30
2018-06-02T14:12:25.931Z,3.50
2018-06-02T14:13:32.845Z,3.60
2018-06-02T14:14:39.614Z,3.70
2018-06-02T14:16:53.735Z,3.80
2018-06-02T14:18:00.620Z,3.10
2018-06-02T14:19:07.426Z,3.30
2018-06-02T14:20:14.252Z,3.40
2018-06-02T14:21:21.162Z,3.30
2018-06-02T14:22:28.137Z,3.40
2018-06-02T14:23:35.237Z,3.50
2018-06-02T14:24:41.986Z,3.20
2018-06-02T14:25:48.868Z,3.20
2018-06-02T14:26:55.761Z,3.50
2018-06-02T14:28:02.662Z,3.50
2018-06-02T14:29:09.716Z,3.80
2018-06-02T14:30:16.528Z,3.80
2018-06-02T14:31:23.514Z,3.10
2018-06-02T14:32:30.557Z,3.20
2018-06-02T14:33:37.129Z,3.30
2018-06-02T14:34:44.231Z,3.60
2018-06-02T14:35:51.012Z,3.80
2018-06-02T14:36:58.462Z,3.50
2018-06-02T14:38:05.126Z,3.80
2018-06-02T14:39:11.472Z,3.50
2018-06-02T14:40:18.412Z,3.70
2018-06-02T14:41:25.332Z,3.30
2018-06-02T14:42:32.212Z,3.40
2018-06-02T14:43:39.112Z,3.60
2018-06-02T14:44:45.976Z,3.70
2018-06-02T14:45:52.843Z,4.40
2018-06-02T14:47:00.937Z,3.70
2018-06-02T14:48:07.025Z,3.40
2018-06-02T14:49:13.887Z,3.70
2018-06-02T14:50:21.426Z,3.70
2018-06-02T14:51:27.783Z,3.70
2018-06-02T14:52:35.150Z,3.50
2018-06-02T14:53:41.619Z,3.40
2018-06-02T14:54:48.556Z,3.60
2018-06-02T14:55:55.408Z,3.60
2018-06-02T14:57:02.198Z,3.30
2018-06-02T14:58:09.004Z,3.50
2018-06-02T14:59:15.967Z,3.80
2018-06-02T15:00:22.923Z,3.90
2018-06-02T15:01:29.699Z,3.90
2018-06-02T15:02:36.498Z,3.50
2018-06-02T15:03:43.443Z,4.00
2018-06-02T15:04:50.422Z,3.70
2018-06-02T15:05:57.068Z,3.70
2018-06-02T15:07:03.903Z,3.60
2018-06-02T15:08:11.074Z,4.10
2018-06-02T15:09:17.622Z,3.40
2018-06-02T15:10:24.485Z,3.60
2018-06-02T15:11:31.319Z,3.60
2018-06-02T15:12:38.224Z,3.30
2018-06-02T15:13:45.221Z,3.50
2018-06-02T15:14:51.868Z,3.60
2018-06-02T15:15:58.788Z,3.90
2018-06-02T15:17:06.087Z,3.80
2018-06-02T15:18:12.610Z,3.40
2018-06-02T15:19:19.417Z,3.30
2018-06-02T15:20:26.323Z,3.40
2018-06-02T15:21:33.184Z,3.20
2018-06-02T15:22:40.246Z,3.60
2018-06-02T15:23:47.224Z,3.50
2018-06-02T15:24:54.063Z,3.70
2018-06-02T15:26:00.979Z,4.00
2018-06-02T15:27:07.959Z,3.40
2018-06-02T15:28:15.267Z,3.90
2018-06-02T15:29:21.933Z,3.60
2018-06-02T15:30:28.463Z,3.60
2018-06-02T15:31:35.348Z,3.90
2018-06-02T15:32:42.256Z,3.90
2018-06-02T15:33:49.094Z,3.70